Lancaster, Canada
Current Conditions -  °F | °C
As of 8:53 AM on Friday 28 Nov 2014 (Local Time) from KMSS Reporting Station
Light Snow Light Snow  
Wind Chill: 12°   Ceiling: 3100
Heat Index: 22°   Visibility: 3mi
Dew Point: 16°   Wind: 9mph
Humidity: 78%   Direction: 250°WSW
Pressure: 30.16"   Gusts: NA
Location:  45.13°N, 74.5°W
Report Text: KMSS 281353Z AUTO 25008KT 3SM -SN FEW015 BKN031 OVC065 M06/M09 A3016 RMK AO2 SNB44 SLP221 P0000 T10561089
Loading
Personal Weather Stations






























Interactive Weather Map New forecast layout! Learn more

10-Day Weather Forecast

Advertisements
Track Severe Weather on mobile